createdAt,value
2022-07-28T00:01:36.612Z,1
2022-07-28T00:03:20.012Z,1
2022-07-28T00:05:03.405Z,1
2022-07-28T00:06:46.792Z,1
2022-07-28T00:11:56.062Z,1
2022-07-28T00:13:39.455Z,1
2022-07-28T00:15:22.840Z,1
2022-07-28T00:17:06.224Z,1
2022-07-28T00:18:49.645Z,1
2022-07-28T00:20:33.041Z,1
2022-07-28T00:22:16.419Z,1
2022-07-28T00:23:59.815Z,1
2022-07-28T00:29:09.070Z,1
2022-07-28T00:30:52.472Z,1
2022-07-28T00:32:35.855Z,1
2022-07-28T00:34:19.260Z,1
2022-07-28T00:36:02.656Z,1
2022-07-28T00:37:46.045Z,1
2022-07-28T00:39:29.437Z,1
2022-07-28T00:41:12.848Z,1
2022-07-28T00:44:39.304Z,1
2022-07-28T00:46:22.705Z,1
2022-07-28T00:48:06.112Z,0
2022-07-28T00:49:49.506Z,0
2022-07-28T00:51:32.902Z,1
2022-07-28T00:53:16.305Z,0
2022-07-28T00:54:59.706Z,1
2022-07-28T00:56:43.098Z,1
2022-07-28T01:00:09.554Z,1
2022-07-28T01:01:52.967Z,0
2022-07-28T01:03:36.361Z,1
2022-07-28T01:05:19.752Z,1
2022-07-28T01:07:03.163Z,1
2022-07-28T01:08:46.553Z,1
2022-07-28T01:10:29.953Z,0
2022-07-28T01:12:13.340Z,1
2022-07-28T01:15:39.828Z,1
2022-07-28T01:17:23.234Z,1
2022-07-28T01:19:06.608Z,1
2022-07-28T01:20:50.018Z,1
2022-07-28T01:22:33.403Z,1
2022-07-28T01:24:16.793Z,1
2022-07-28T01:26:00.195Z,1
2022-07-28T01:27:43.596Z,1
2022-07-28T01:32:52.844Z,1
2022-07-28T01:34:36.258Z,0
2022-07-28T01:36:19.630Z,1
2022-07-28T01:38:03.022Z,1
2022-07-28T01:39:46.424Z,1
2022-07-28T01:41:29.824Z,1
2022-07-28T01:43:13.215Z,1
2022-07-28T01:44:56.605Z,1
2022-07-28T01:48:23.094Z,1
2022-07-28T01:50:06.492Z,1
2022-07-28T01:51:49.895Z,0
2022-07-28T01:53:33.278Z,0
2022-07-28T01:55:16.682Z,1
2022-07-28T01:57:00.078Z,0
2022-07-28T01:58:43.469Z,1
2022-07-28T02:00:26.878Z,1
2022-07-28T02:02:10.269Z,1
2022-07-28T02:03:53.971Z,1
2022-07-28T02:05:37.376Z,1
2022-07-28T02:07:20.764Z,1
2022-07-28T02:09:04.173Z,1
2022-07-28T02:10:47.573Z,1
2022-07-28T02:12:30.969Z,0
2022-07-28T02:14:14.360Z,1
2022-07-28T02:15:57.740Z,0
2022-07-28T02:17:41.136Z,1
2022-07-28T02:21:07.645Z,1
2022-07-28T02:22:51.029Z,0
2022-07-28T02:24:34.417Z,1
2022-07-28T02:26:17.816Z,1
2022-07-28T02:28:01.208Z,1
2022-07-28T02:29:44.617Z,1
2022-07-28T02:31:28.006Z,1
2022-07-28T02:33:11.405Z,1
2022-07-28T02:38:20.664Z,1
2022-07-28T02:40:04.066Z,0
2022-07-28T02:41:47.434Z,1
2022-07-28T02:43:30.824Z,1
2022-07-28T02:45:14.260Z,1
2022-07-28T02:46:57.621Z,1
2022-07-28T02:48:41.029Z,0
2022-07-28T02:50:24.416Z,1
2022-07-28T02:52:07.817Z,1
2022-07-28T02:53:51.518Z,0
2022-07-28T02:55:34.940Z,1
2022-07-28T02:57:18.306Z,1
2022-07-28T02:59:01.712Z,0
2022-07-28T03:00:45.112Z,0
2022-07-28T03:02:28.504Z,1
2022-07-28T03:04:11.891Z,0
2022-07-28T03:05:55.297Z,1
2022-07-28T03:07:38.701Z,1
2022-07-28T03:11:05.174Z,1
2022-07-28T03:12:48.585Z,1
2022-07-28T03:14:31.957Z,1
2022-07-28T03:16:15.347Z,1
2022-07-28T03:17:58.757Z,1
2022-07-28T03:19:42.147Z,1
2022-07-28T03:21:25.552Z,1
2022-07-28T03:23:08.942Z,1
2022-07-28T03:24:52.329Z,1
2022-07-28T03:28:18.811Z,1
2022-07-28T03:30:02.210Z,1
2022-07-28T03:31:45.599Z,1
2022-07-28T03:33:29.000Z,2
2022-07-28T03:35:12.388Z,3
2022-07-28T03:36:55.799Z,3
2022-07-28T03:38:39.177Z,4
2022-07-28T03:40:22.584Z,4
2022-07-28T03:42:05.982Z,4
2022-07-28T03:45:32.452Z,4
2022-07-28T03:47:15.840Z,3
2022-07-28T03:48:59.243Z,3
2022-07-28T03:50:42.639Z,3
2022-07-28T03:52:26.030Z,3
2022-07-28T03:54:09.421Z,4
2022-07-28T03:55:52.831Z,4
2022-07-28T03:57:36.232Z,5
2022-07-28T04:01:02.686Z,8
2022-07-28T04:02:46.086Z,9
2022-07-28T04:04:29.485Z,10
2022-07-28T04:06:12.879Z,13
2022-07-28T04:07:56.290Z,14
2022-07-28T04:09:39.911Z,15
2022-07-28T04:11:23.067Z,16
2022-07-28T04:13:06.468Z,17
2022-07-28T04:14:49.861Z,19
2022-07-28T04:18:16.336Z,19
2022-07-28T04:19:59.723Z,24
2022-07-28T04:21:43.121Z,28
2022-07-28T04:23:26.526Z,29
2022-07-28T04:25:09.917Z,28
2022-07-28T04:26:53.324Z,30
2022-07-28T04:28:36.705Z,37
2022-07-28T04:30:20.107Z,45
2022-07-28T04:32:03.498Z,47
2022-07-28T04:35:29.982Z,34
2022-07-28T04:37:13.367Z,52
2022-07-28T04:38:56.754Z,56
2022-07-28T04:40:40.168Z,49
2022-07-28T04:42:23.549Z,58
2022-07-28T04:44:06.957Z,67
2022-07-28T04:45:50.347Z,73
2022-07-28T04:47:33.739Z,72
2022-07-28T04:49:17.155Z,94
2022-07-28T04:51:00.844Z,78
2022-07-28T04:52:44.247Z,230
2022-07-28T04:54:27.643Z,249
2022-07-28T04:56:11.039Z,285
2022-07-28T04:57:54.440Z,271
2022-07-28T04:59:37.838Z,297
2022-07-28T05:01:21.228Z,363
2022-07-28T05:03:04.632Z,367
2022-07-28T05:08:13.863Z,405
2022-07-28T05:09:57.272Z,410
2022-07-28T05:11:40.660Z,360
2022-07-28T05:13:24.066Z,322
2022-07-28T05:15:07.466Z,412
2022-07-28T05:16:50.856Z,432
2022-07-28T05:18:34.268Z,438
2022-07-28T05:20:17.658Z,447
2022-07-28T05:23:44.125Z,462
2022-07-28T05:25:27.519Z,468
2022-07-28T05:27:10.920Z,476
2022-07-28T05:28:54.324Z,411
2022-07-28T05:30:37.704Z,378
2022-07-28T05:32:21.107Z,388
2022-07-28T05:34:04.498Z,533
2022-07-28T05:35:47.894Z,546
2022-07-28T05:39:14.381Z,582
2022-07-28T05:40:57.768Z,593
2022-07-28T05:42:41.156Z,438
2022-07-28T05:44:24.591Z,597
2022-07-28T05:46:07.965Z,595
2022-07-28T05:47:51.355Z,593
2022-07-28T05:49:34.757Z,528
2022-07-28T05:51:18.139Z,606
2022-07-28T05:54:44.634Z,235
2022-07-28T05:56:28.020Z,353
2022-07-28T05:58:11.666Z,523
2022-07-28T05:59:54.824Z,259
2022-07-28T06:01:38.222Z,340
2022-07-28T06:03:21.611Z,532
2022-07-28T06:05:04.994Z,488
2022-07-28T06:06:48.404Z,555
2022-07-28T06:11:57.653Z,328
2022-07-28T06:13:41.052Z,544
2022-07-28T06:15:24.443Z,516
2022-07-28T06:17:07.831Z,549
2022-07-28T06:18:51.249Z,564
2022-07-28T06:20:34.627Z,580
2022-07-28T06:22:18.022Z,586
2022-07-28T06:24:01.417Z,589
2022-07-28T06:29:10.665Z,594
2022-07-28T06:30:54.060Z,601
2022-07-28T06:32:37.453Z,539
2022-07-28T06:34:20.850Z,592
2022-07-28T06:36:04.246Z,609
2022-07-28T06:37:47.658Z,605
2022-07-28T06:39:31.061Z,606
2022-07-28T06:41:14.427Z,520
2022-07-28T06:44:40.924Z,556
2022-07-28T06:46:24.308Z,412
2022-07-28T06:48:07.712Z,610
2022-07-28T06:49:51.096Z,636
2022-07-28T06:51:34.515Z,633
2022-07-28T06:53:17.904Z,624
2022-07-28T06:55:01.293Z,628
2022-07-28T06:56:44.690Z,634
2022-07-28T06:58:28.082Z,621
2022-07-28T07:00:11.811Z,640
2022-07-28T07:01:55.188Z,641
2022-07-28T07:03:38.592Z,641
2022-07-28T07:05:21.992Z,641
2022-07-28T07:07:05.379Z,628
2022-07-28T07:08:48.774Z,643
2022-07-28T07:10:32.184Z,649
2022-07-28T07:12:15.563Z,652
2022-07-28T07:17:24.812Z,658
2022-07-28T07:19:08.216Z,666
2022-07-28T07:20:51.602Z,666
2022-07-28T07:22:35.003Z,672
2022-07-28T07:24:18.396Z,673
2022-07-28T07:26:01.801Z,673
2022-07-28T07:27:45.199Z,679
2022-07-28T07:29:28.851Z,679
2022-07-28T07:31:11.991Z,683
2022-07-28T07:32:55.695Z,695
2022-07-28T07:34:39.072Z,683
2022-07-28T07:36:22.486Z,689
2022-07-28T07:38:05.875Z,691
2022-07-28T07:39:49.265Z,699
2022-07-28T07:41:32.660Z,696
2022-07-28T07:43:16.056Z,695
2022-07-28T07:44:59.455Z,708
2022-07-28T07:48:25.937Z,721
2022-07-28T07:50:09.347Z,718
2022-07-28T07:51:52.718Z,727
2022-07-28T07:53:36.121Z,733
2022-07-28T07:55:19.527Z,737
2022-07-28T07:57:02.908Z,744
2022-07-28T07:58:46.318Z,748
2022-07-28T08:00:29.725Z,751
2022-07-28T08:05:38.937Z,764
2022-07-28T08:07:22.358Z,770
2022-07-28T08:09:05.735Z,766
2022-07-28T08:10:49.132Z,777
2022-07-28T08:12:32.567Z,781
2022-07-28T08:14:15.921Z,782
2022-07-28T08:15:59.325Z,781
2022-07-28T08:17:42.729Z,781
2022-07-28T08:21:09.187Z,782
2022-07-28T08:22:52.587Z,781
2022-07-28T08:24:35.986Z,781
2022-07-28T08:26:19.392Z,781
2022-07-28T08:28:02.769Z,781
2022-07-28T08:29:46.171Z,781
2022-07-28T08:31:29.567Z,781
2022-07-28T08:33:12.971Z,781
2022-07-28T08:36:39.461Z,781
2022-07-28T08:38:22.837Z,781
2022-07-28T08:40:06.235Z,781
2022-07-28T08:41:49.623Z,781
2022-07-28T08:43:33.036Z,781
2022-07-28T08:45:16.428Z,781
2022-07-28T08:46:59.829Z,782
2022-07-28T08:48:43.213Z,782
2022-07-28T08:53:52.450Z,782
2022-07-28T08:55:35.857Z,781
2022-07-28T08:57:19.249Z,782
2022-07-28T08:59:02.648Z,782
2022-07-28T09:00:46.042Z,781
2022-07-28T09:02:29.445Z,782
2022-07-28T09:04:12.834Z,782
2022-07-28T09:05:56.234Z,781
2022-07-28T09:09:22.707Z,781
2022-07-28T09:11:06.131Z,781
2022-07-28T09:12:49.499Z,781
2022-07-28T09:14:32.901Z,782
2022-07-28T09:16:16.302Z,782
2022-07-28T09:17:59.694Z,781
2022-07-28T09:19:43.081Z,782
2022-07-28T09:21:26.485Z,781
2022-07-28T09:24:52.955Z,781
2022-07-28T09:26:36.346Z,782
2022-07-28T09:28:19.746Z,782
2022-07-28T09:30:03.147Z,781
2022-07-28T09:31:46.535Z,782
2022-07-28T09:33:29.938Z,782
2022-07-28T09:35:13.317Z,636
2022-07-28T09:36:56.740Z,773
2022-07-28T09:38:40.427Z,646
2022-07-28T09:40:23.832Z,692
2022-07-28T09:42:07.221Z,579
2022-07-28T09:43:50.624Z,589
2022-07-28T09:45:34.013Z,672
2022-07-28T09:47:17.417Z,553
2022-07-28T09:49:00.798Z,587
2022-07-28T09:50:44.193Z,773
2022-07-28T09:52:27.903Z,781
2022-07-28T09:54:11.319Z,781
2022-07-28T09:55:54.703Z,781
2022-07-28T09:57:38.101Z,782
2022-07-28T09:59:21.482Z,782
2022-07-28T10:01:04.891Z,782
2022-07-28T10:02:48.292Z,782
2022-07-28T10:04:31.695Z,779
2022-07-28T10:06:15.405Z,781
2022-07-28T10:07:58.788Z,782
2022-07-28T10:09:42.183Z,781
2022-07-28T10:11:25.584Z,782
2022-07-28T10:13:08.987Z,782
2022-07-28T10:14:52.372Z,782
2022-07-28T10:16:35.760Z,782
2022-07-28T10:18:19.161Z,782
2022-07-28T10:21:45.627Z,782
2022-07-28T10:23:29.040Z,660
2022-07-28T10:25:12.431Z,679
2022-07-28T10:26:55.829Z,769
2022-07-28T10:28:39.236Z,782
2022-07-28T10:30:22.615Z,782
2022-07-28T10:32:06.018Z,782
2022-07-28T10:33:49.415Z,783
2022-07-28T10:37:15.882Z,782
2022-07-28T10:38:59.308Z,781
2022-07-28T10:40:42.684Z,782
2022-07-28T10:42:26.098Z,732
2022-07-28T10:44:09.474Z,782
2022-07-28T10:45:52.886Z,782
2022-07-28T10:47:36.279Z,782
2022-07-28T10:49:19.661Z,782
2022-07-28T10:52:46.137Z,782
2022-07-28T10:54:29.538Z,782
2022-07-28T10:57:56.333Z,658
2022-07-28T10:59:39.720Z,705
2022-07-28T11:01:23.134Z,782
2022-07-28T11:03:06.518Z,782
2022-07-28T11:04:49.918Z,781
2022-07-28T11:08:16.382Z,783
2022-07-28T11:09:59.793Z,782
2022-07-28T11:11:43.173Z,782
2022-07-28T11:13:26.597Z,782
2022-07-28T11:15:09.978Z,782
2022-07-28T11:16:53.380Z,782
2022-07-28T11:18:36.776Z,782
2022-07-28T11:20:20.169Z,782
2022-07-28T11:23:46.655Z,782
2022-07-28T11:25:30.060Z,782
2022-07-28T11:27:13.432Z,782
2022-07-28T11:28:56.825Z,782
2022-07-28T11:30:40.241Z,782
2022-07-28T11:32:23.631Z,782
2022-07-28T11:34:07.019Z,782
2022-07-28T11:35:50.435Z,781
2022-07-28T11:39:16.975Z,782
2022-07-28T11:41:00.302Z,782
2022-07-28T11:42:43.694Z,782
2022-07-28T11:44:27.096Z,782
2022-07-28T11:46:10.490Z,782
2022-07-28T11:47:53.891Z,782
2022-07-28T11:49:37.288Z,782
2022-07-28T11:51:20.727Z,772
2022-07-28T11:53:04.388Z,782
2022-07-28T11:54:47.791Z,782
2022-07-28T11:56:31.167Z,783
2022-07-28T11:58:14.569Z,782
2022-07-28T11:59:57.980Z,782
2022-07-28T12:01:41.370Z,782
2022-07-28T12:03:24.756Z,783
2022-07-28T12:05:08.147Z,772
2022-07-28T12:06:51.862Z,782
2022-07-28T12:08:35.275Z,782
2022-07-28T12:10:18.668Z,782
2022-07-28T12:12:02.042Z,782
2022-07-28T12:13:45.442Z,782
2022-07-28T12:15:28.833Z,782
2022-07-28T12:17:12.234Z,782
2022-07-28T12:18:55.666Z,782
2022-07-28T12:22:22.107Z,782
2022-07-28T12:24:05.541Z,783
2022-07-28T12:25:48.909Z,782
2022-07-28T12:27:32.304Z,783
2022-07-28T12:29:15.697Z,782
2022-07-28T12:30:59.096Z,783
2022-07-28T12:32:42.478Z,783
2022-07-28T12:34:25.874Z,782
2022-07-28T12:36:09.584Z,782
2022-07-28T12:37:52.995Z,783
2022-07-28T12:39:36.418Z,783
2022-07-28T12:41:19.783Z,783
2022-07-28T12:43:03.176Z,782
2022-07-28T12:44:46.567Z,783
2022-07-28T12:46:29.974Z,783
2022-07-28T12:48:13.366Z,783
2022-07-28T12:51:39.836Z,783
2022-07-28T12:53:23.234Z,782
2022-07-28T12:55:06.640Z,782
2022-07-28T12:56:50.021Z,782
2022-07-28T12:58:33.414Z,782
2022-07-28T13:00:16.818Z,782
2022-07-28T13:02:00.228Z,783
2022-07-28T13:07:09.466Z,782
2022-07-28T13:08:52.852Z,783
2022-07-28T13:10:36.255Z,783
2022-07-28T13:12:19.714Z,783
2022-07-28T13:14:03.069Z,783
2022-07-28T13:15:46.466Z,782
2022-07-28T13:17:29.847Z,782
2022-07-28T13:19:13.244Z,783
2022-07-28T13:22:39.722Z,782
2022-07-28T13:24:23.118Z,782
2022-07-28T13:26:06.514Z,782
2022-07-28T13:27:49.902Z,782
2022-07-28T13:29:33.295Z,783
2022-07-28T13:31:16.708Z,782
2022-07-28T13:33:00.106Z,782
2022-07-28T13:34:43.495Z,781
2022-07-28T13:38:09.957Z,783
2022-07-28T13:39:53.385Z,783
2022-07-28T13:41:36.763Z,783
2022-07-28T13:43:20.153Z,782
2022-07-28T13:45:03.549Z,782
2022-07-28T13:46:46.974Z,783
2022-07-28T13:48:30.354Z,783
2022-07-28T13:50:13.737Z,782
2022-07-28T13:53:40.249Z,782
2022-07-28T13:55:23.616Z,782
2022-07-28T13:57:07.024Z,783
2022-07-28T13:58:50.407Z,784
2022-07-28T14:00:33.812Z,783
2022-07-28T14:02:17.207Z,783
2022-07-28T14:04:00.594Z,783
2022-07-28T14:05:43.981Z,782
2022-07-28T14:09:10.476Z,782
2022-07-28T14:10:53.866Z,783
2022-07-28T14:12:37.257Z,782
2022-07-28T14:14:20.657Z,783
2022-07-28T14:16:04.066Z,783
2022-07-28T14:17:47.450Z,782
2022-07-28T14:19:30.853Z,783
2022-07-28T14:21:14.255Z,782
2022-07-28T14:24:40.734Z,783
2022-07-28T14:26:24.104Z,783
2022-07-28T14:28:07.516Z,783
2022-07-28T14:29:50.910Z,782
2022-07-28T14:31:34.328Z,783
2022-07-28T14:33:17.701Z,783
2022-07-28T14:35:01.099Z,782
2022-07-28T14:36:44.500Z,782
2022-07-28T14:41:53.735Z,782
2022-07-28T14:43:37.136Z,783
2022-07-28T14:45:20.550Z,783
2022-07-28T14:47:03.928Z,783
2022-07-28T14:48:47.334Z,783
2022-07-28T14:50:30.749Z,782
2022-07-28T14:52:14.125Z,782
2022-07-28T14:53:57.525Z,783
2022-07-28T14:57:23.986Z,783
2022-07-28T14:59:07.380Z,783
2022-07-28T15:00:50.783Z,782
2022-07-28T15:02:34.182Z,782
2022-07-28T15:04:17.558Z,782
2022-07-28T15:06:00.984Z,783
2022-07-28T15:07:44.360Z,783
2022-07-28T15:09:27.765Z,783
2022-07-28T15:12:54.237Z,783
2022-07-28T15:14:37.634Z,783
2022-07-28T15:16:21.014Z,783
2022-07-28T15:18:04.422Z,783
2022-07-28T15:19:47.815Z,783
2022-07-28T15:21:31.213Z,782
2022-07-28T15:23:14.615Z,783
2022-07-28T15:26:41.091Z,782
2022-07-28T15:28:24.488Z,783
2022-07-28T15:30:07.874Z,783
2022-07-28T15:31:51.270Z,782
2022-07-28T15:33:34.666Z,782
2022-07-28T15:35:18.071Z,783
2022-07-28T15:37:01.461Z,783
2022-07-28T15:42:10.715Z,783
2022-07-28T15:43:54.112Z,783
2022-07-28T15:45:37.514Z,783
2022-07-28T15:47:20.887Z,782
2022-07-28T15:49:04.299Z,783
2022-07-28T15:50:47.695Z,782
2022-07-28T15:52:31.076Z,782
2022-07-28T15:55:57.573Z,783
2022-07-28T15:57:40.966Z,784
2022-07-28T15:59:24.354Z,783
2022-07-28T16:01:07.734Z,783
2022-07-28T16:02:51.134Z,783
2022-07-28T16:04:34.545Z,784
2022-07-28T16:06:17.933Z,783
2022-07-28T16:08:01.343Z,772
2022-07-28T16:09:45.028Z,783
2022-07-28T16:11:28.451Z,784
2022-07-28T16:13:11.842Z,784
2022-07-28T16:14:55.228Z,782
2022-07-28T16:16:38.619Z,783
2022-07-28T16:18:22.015Z,783
2022-07-28T16:20:05.425Z,783
2022-07-28T16:21:48.804Z,782
2022-07-28T16:25:15.284Z,784
2022-07-28T16:26:58.674Z,784
2022-07-28T16:28:42.077Z,783
2022-07-28T16:30:25.480Z,783
2022-07-28T16:32:08.880Z,783
2022-07-28T16:33:52.258Z,783
2022-07-28T16:35:35.662Z,783
2022-07-28T16:37:19.059Z,783
2022-07-28T16:40:45.513Z,783
2022-07-28T16:42:28.921Z,783
2022-07-28T16:44:12.318Z,783
2022-07-28T16:45:55.723Z,783
2022-07-28T16:47:39.102Z,783
2022-07-28T16:49:22.496Z,783
2022-07-28T16:51:05.894Z,784
2022-07-28T16:52:49.296Z,783
2022-07-28T16:54:33.029Z,784
2022-07-28T16:56:16.387Z,784
2022-07-28T16:57:59.791Z,784
2022-07-28T16:59:43.185Z,783
2022-07-28T17:01:26.592Z,784
2022-07-28T17:03:09.982Z,784
2022-07-28T17:04:53.388Z,784
2022-07-28T17:06:36.778Z,784
2022-07-28T17:10:03.246Z,784
2022-07-28T17:11:46.647Z,785
2022-07-28T17:13:30.042Z,784
2022-07-28T17:15:13.435Z,784
2022-07-28T17:16:56.837Z,784
2022-07-28T17:18:40.269Z,784
2022-07-28T17:20:23.639Z,784
2022-07-28T17:22:07.032Z,784
2022-07-28T17:25:33.505Z,784
2022-07-28T17:27:16.885Z,783
2022-07-28T17:29:00.287Z,783
2022-07-28T17:30:43.684Z,783
2022-07-28T17:32:27.084Z,784
2022-07-28T17:34:10.509Z,732
2022-07-28T17:35:53.889Z,783
2022-07-28T17:37:37.269Z,782
2022-07-28T17:41:03.742Z,783
2022-07-28T17:42:47.143Z,783
2022-07-28T17:44:30.553Z,407
2022-07-28T17:46:13.950Z,380
2022-07-28T17:47:57.335Z,348
2022-07-28T17:49:40.746Z,291
2022-07-28T17:51:24.124Z,239
2022-07-28T17:53:07.532Z,211
2022-07-28T17:56:33.992Z,157
2022-07-28T17:58:17.399Z,133
2022-07-28T18:00:00.804Z,117
2022-07-28T18:01:44.193Z,104
2022-07-28T18:03:27.582Z,100
2022-07-28T18:05:10.980Z,98
2022-07-28T18:06:54.375Z,98
2022-07-28T18:08:37.782Z,101
2022-07-28T18:12:04.239Z,109
2022-07-28T18:13:47.633Z,111
2022-07-28T18:15:31.039Z,113
2022-07-28T18:17:14.447Z,110
2022-07-28T18:18:57.831Z,104
2022-07-28T18:20:41.236Z,98
2022-07-28T18:22:24.618Z,95
2022-07-28T18:24:08.007Z,90
2022-07-28T18:27:34.507Z,88
2022-07-28T18:29:17.897Z,87
2022-07-28T18:31:01.355Z,88
2022-07-28T18:32:44.673Z,89
2022-07-28T18:34:28.079Z,92
2022-07-28T18:36:11.508Z,96
2022-07-28T18:37:54.872Z,97
2022-07-28T18:39:38.281Z,97
2022-07-28T18:41:21.961Z,97
2022-07-28T18:43:05.361Z,95
2022-07-28T18:44:48.775Z,93
2022-07-28T18:46:32.173Z,93
2022-07-28T18:48:15.566Z,87
2022-07-28T18:49:58.945Z,79
2022-07-28T18:51:42.345Z,67
2022-07-28T18:53:25.766Z,57
2022-07-28T18:56:52.224Z,36
2022-07-28T18:58:35.622Z,31
2022-07-28T19:00:19.011Z,27
2022-07-28T19:02:02.397Z,26
2022-07-28T19:03:45.833Z,25
2022-07-28T19:05:29.213Z,23
2022-07-28T19:07:12.595Z,19
2022-07-28T19:08:56.003Z,15
2022-07-28T19:12:22.459Z,7
2022-07-28T19:14:05.862Z,6
2022-07-28T19:15:49.268Z,4
2022-07-28T19:17:32.668Z,3
2022-07-28T19:19:16.061Z,3
2022-07-28T19:20:59.458Z,2
2022-07-28T19:22:42.858Z,2
2022-07-28T19:24:26.255Z,2
2022-07-28T19:26:09.951Z,2
2022-07-28T19:27:53.361Z,2
2022-07-28T19:29:36.742Z,2
2022-07-28T19:31:20.152Z,2
2022-07-28T19:33:03.552Z,1
2022-07-28T19:34:46.932Z,1
2022-07-28T19:36:30.324Z,1
2022-07-28T19:38:13.735Z,1
2022-07-28T19:41:40.209Z,1
2022-07-28T19:43:23.602Z,9
2022-07-28T19:45:06.995Z,9
2022-07-28T19:46:50.386Z,10
2022-07-28T19:48:33.789Z,10
2022-07-28T19:50:17.194Z,9
2022-07-28T19:52:00.591Z,10
2022-07-28T19:53:43.973Z,10
2022-07-28T19:58:53.227Z,9
2022-07-28T20:00:36.640Z,10
2022-07-28T20:02:20.014Z,9
2022-07-28T20:04:03.417Z,10
2022-07-28T20:05:46.821Z,9
2022-07-28T20:07:30.214Z,9
2022-07-28T20:09:13.602Z,10
2022-07-28T20:10:57.017Z,10
2022-07-28T20:14:23.527Z,9
2022-07-28T20:16:06.902Z,10
2022-07-28T20:17:50.284Z,10
2022-07-28T20:19:33.661Z,9
2022-07-28T20:21:17.064Z,9
2022-07-28T20:23:00.459Z,9
2022-07-28T20:24:43.862Z,9
2022-07-28T20:26:27.264Z,7
2022-07-28T20:28:10.969Z,576
2022-07-28T20:29:54.346Z,571
2022-07-28T20:31:37.757Z,15
2022-07-28T20:33:21.153Z,14
2022-07-28T20:35:04.569Z,16
2022-07-28T20:36:47.934Z,9
2022-07-28T20:38:31.339Z,7
2022-07-28T20:40:14.728Z,7
2022-07-28T20:45:24.615Z,567
2022-07-28T20:47:07.997Z,564
2022-07-28T20:48:51.395Z,1
2022-07-28T20:50:34.795Z,1
2022-07-28T20:52:18.183Z,0
2022-07-28T20:54:01.587Z,1
2022-07-28T20:55:44.987Z,1
2022-07-28T20:59:11.464Z,1
2022-07-28T21:00:54.861Z,0
2022-07-28T21:02:38.247Z,1
2022-07-28T21:04:21.670Z,1
2022-07-28T21:06:05.056Z,1
2022-07-28T21:07:48.467Z,1
2022-07-28T21:09:31.833Z,1
2022-07-28T21:11:15.244Z,2
2022-07-28T21:12:58.621Z,2
2022-07-28T21:14:42.333Z,1
2022-07-28T21:16:25.757Z,1
2022-07-28T21:18:09.137Z,1
2022-07-28T21:19:52.526Z,0
2022-07-28T21:21:35.922Z,1
2022-07-28T21:23:19.322Z,0
2022-07-28T21:25:02.721Z,1
2022-07-28T21:26:46.131Z,1
2022-07-28T21:30:12.598Z,1
2022-07-28T21:31:55.979Z,1
2022-07-28T21:33:39.382Z,1
2022-07-28T21:35:22.796Z,1
2022-07-28T21:37:06.182Z,1
2022-07-28T21:38:49.580Z,1
2022-07-28T21:40:32.965Z,1
2022-07-28T21:42:16.387Z,0
2022-07-28T21:45:42.848Z,1
2022-07-28T21:47:26.240Z,1
2022-07-28T21:49:09.641Z,0
2022-07-28T21:50:53.041Z,1
2022-07-28T21:52:36.436Z,1
2022-07-28T21:54:19.826Z,1
2022-07-28T21:56:03.232Z,1
2022-07-28T21:57:46.619Z,1
2022-07-28T22:02:55.885Z,1
2022-07-28T22:04:39.270Z,1
2022-07-28T22:06:22.656Z,1
2022-07-28T22:08:06.068Z,1
2022-07-28T22:09:49.457Z,0
2022-07-28T22:11:32.840Z,1
2022-07-28T22:13:16.249Z,0
2022-07-28T22:14:59.661Z,1
2022-07-28T22:18:26.113Z,0
2022-07-28T22:20:09.513Z,1
2022-07-28T22:21:52.950Z,0
2022-07-28T22:23:36.305Z,1
2022-07-28T22:25:19.701Z,1
2022-07-28T22:27:03.107Z,0
2022-07-28T22:28:46.525Z,0
2022-07-28T22:30:29.907Z,1
2022-07-28T22:33:56.381Z,1
2022-07-28T22:37:23.172Z,1
2022-07-28T22:39:06.561Z,1
2022-07-28T22:40:49.966Z,1
2022-07-28T22:42:33.360Z,1
2022-07-28T22:44:16.769Z,1
2022-07-28T22:46:00.164Z,1
2022-07-28T22:49:26.635Z,1
2022-07-28T22:51:10.028Z,1
2022-07-28T22:52:53.422Z,0
2022-07-28T22:54:36.818Z,0
2022-07-28T22:56:20.221Z,1
2022-07-28T22:58:03.612Z,1
2022-07-28T22:59:47.016Z,1
2022-07-28T23:01:30.397Z,1
2022-07-28T23:03:14.120Z,1
2022-07-28T23:04:57.517Z,1
2022-07-28T23:06:40.913Z,0
2022-07-28T23:08:24.320Z,1
2022-07-28T23:10:07.697Z,1
2022-07-28T23:11:51.096Z,1
2022-07-28T23:13:34.504Z,0
2022-07-28T23:15:17.900Z,0
2022-07-28T23:18:44.364Z,1
2022-07-28T23:20:27.756Z,1
2022-07-28T23:22:11.160Z,0
2022-07-28T23:23:54.547Z,1
2022-07-28T23:25:37.954Z,1
2022-07-28T23:27:21.351Z,0
2022-07-28T23:29:04.739Z,0
2022-07-28T23:30:48.146Z,1
2022-07-28T23:32:31.845Z,1
2022-07-28T23:34:15.245Z,1
2022-07-28T23:35:58.641Z,1
2022-07-28T23:37:42.027Z,1
2022-07-28T23:39:25.441Z,1
2022-07-28T23:41:08.832Z,0
2022-07-28T23:42:52.222Z,1
2022-07-28T23:44:35.626Z,0
2022-07-28T23:48:02.112Z,1
2022-07-28T23:49:45.502Z,0
2022-07-28T23:51:28.895Z,1
2022-07-28T23:53:12.313Z,1
2022-07-28T23:54:55.690Z,1
2022-07-28T23:56:39.084Z,1
2022-07-28T23:58:22.476Z,1
